createdAt,value
2022-10-11T00:00:54.455Z,64
2022-10-11T00:01:55.398Z,62
2022-10-11T00:02:57.323Z,64
2022-10-11T00:03:58.399Z,62
2022-10-11T00:05:00.438Z,64
2022-10-11T00:06:02.831Z,64
2022-10-11T00:07:04.402Z,64
2022-10-11T00:08:06.409Z,64
2022-10-11T00:09:07.348Z,64
2022-10-11T00:10:08.458Z,64
2022-10-11T00:11:10.438Z,64
2022-10-11T00:12:12.444Z,65
2022-10-11T00:13:14.830Z,62
2022-10-11T00:14:16.438Z,62
2022-10-11T00:15:18.319Z,64
2022-10-11T00:16:19.338Z,64
2022-10-11T00:17:20.287Z,64
2022-10-11T00:18:21.299Z,62
2022-10-11T00:19:22.282Z,62
2022-10-11T00:20:23.318Z,62
2022-10-11T00:21:24.418Z,62
2022-10-11T00:22:25.419Z,64
2022-10-11T00:23:26.358Z,62
2022-10-11T00:24:27.404Z,62
2022-10-11T00:25:28.299Z,63
2022-10-11T00:26:29.300Z,62
2022-10-11T00:27:30.339Z,62
2022-10-11T00:28:31.399Z,62
2022-10-11T00:29:32.320Z,62
2022-10-11T00:30:33.358Z,62
2022-10-11T00:31:35.743Z,64
2022-10-11T00:32:35.420Z,62
2022-10-11T00:33:36.406Z,65
2022-10-11T00:34:37.453Z,64
2022-10-11T00:35:39.323Z,64
2022-10-11T00:36:40.408Z,65
2022-10-11T00:37:41.500Z,64
2022-10-11T00:38:43.347Z,64
2022-10-11T00:39:45.562Z,64
2022-10-11T00:40:47.379Z,64
2022-10-11T00:41:48.379Z,64
2022-10-11T00:42:49.378Z,65
2022-10-11T00:43:50.400Z,65
2022-10-11T00:44:51.398Z,65
2022-10-11T00:45:52.398Z,65
2022-10-11T00:46:55.804Z,64
2022-10-11T00:47:54.379Z,65
2022-10-11T00:48:55.381Z,65
2022-10-11T00:49:56.399Z,65
2022-10-11T00:50:57.387Z,65
2022-10-11T00:51:58.399Z,66
2022-10-11T00:52:59.320Z,65
2022-10-11T00:54:00.399Z,65
2022-10-11T00:55:01.587Z,65
2022-10-11T00:56:03.741Z,65
2022-10-11T00:57:04.438Z,65
2022-10-11T00:58:05.458Z,64
2022-10-11T00:59:07.439Z,65
2022-10-11T01:00:09.438Z,65
2022-10-11T01:01:10.485Z,64
2022-10-11T01:02:12.464Z,65
2022-10-11T01:03:14.440Z,66
2022-10-11T01:04:16.458Z,66
2022-10-11T01:05:29.011Z,66
2022-10-11T01:06:20.479Z,66
2022-10-11T01:07:22.519Z,67
2022-10-11T01:08:24.454Z,67
2022-10-11T01:09:26.391Z,67
2022-10-11T01:10:27.506Z,67
2022-10-11T01:11:28.379Z,66
2022-10-11T01:12:29.359Z,68
2022-10-11T01:13:30.318Z,68
2022-10-11T01:14:31.403Z,68
2022-10-11T01:15:32.379Z,69
2022-10-11T01:16:33.382Z,68
2022-10-11T01:17:34.431Z,69
2022-10-11T01:18:35.380Z,68
2022-10-11T01:19:36.379Z,69
2022-10-11T01:20:37.384Z,68
2022-10-11T01:21:38.448Z,68
2022-10-11T01:22:40.339Z,68
2022-10-11T01:23:41.417Z,68
2022-10-11T01:24:42.390Z,68
2022-10-11T01:25:43.581Z,67
2022-10-11T01:26:45.520Z,67
2022-10-11T01:27:47.338Z,66
2022-10-11T01:28:48.410Z,67
2022-10-11T01:29:49.319Z,66
2022-10-11T01:30:50.398Z,67
2022-10-11T01:31:51.398Z,67
2022-10-11T01:32:52.401Z,67
2022-10-11T01:33:53.339Z,66
2022-10-11T01:34:54.294Z,66
2022-10-11T01:35:55.379Z,66
2022-10-11T01:36:56.399Z,66
2022-10-11T01:37:57.370Z,66
2022-10-11T01:38:58.559Z,66
2022-10-11T01:40:00.480Z,65
2022-10-11T01:41:02.424Z,65
2022-10-11T01:42:03.432Z,65
2022-10-11T01:43:04.446Z,65
2022-10-11T01:44:06.550Z,65
2022-10-11T01:45:08.542Z,65
2022-10-11T01:46:10.526Z,67
2022-10-11T01:47:12.410Z,65
2022-10-11T01:48:14.446Z,66
2022-10-11T01:49:16.700Z,65
2022-10-11T01:50:18.499Z,65
2022-10-11T01:51:20.358Z,65
2022-10-11T01:52:21.421Z,65
2022-10-11T01:53:22.400Z,64
2022-10-11T01:54:23.499Z,65
2022-10-11T01:55:24.520Z,65
2022-10-11T01:56:26.467Z,-1
2022-10-11T01:57:27.377Z,65
2022-10-11T01:58:28.383Z,67
2022-10-11T01:59:30.538Z,67
2022-10-11T02:03:51.409Z,66
2022-10-11T02:04:52.429Z,66
2022-10-11T02:05:54.396Z,67
2022-10-11T02:06:55.380Z,66
2022-10-11T02:07:56.395Z,67
2022-10-11T02:08:57.455Z,66
2022-10-11T02:09:59.520Z,67
2022-10-11T02:11:01.434Z,67
2022-10-11T02:12:02.474Z,65
2022-10-11T02:13:04.395Z,65
2022-10-11T02:14:05.493Z,65
2022-10-11T02:15:07.463Z,66
2022-10-11T02:16:08.797Z,65
2022-10-11T02:17:09.395Z,65
2022-10-11T02:18:10.395Z,65
2022-10-11T02:19:11.435Z,65
2022-10-11T02:20:12.434Z,65
2022-10-11T02:21:13.342Z,65
2022-10-11T02:22:14.376Z,65
2022-10-11T02:23:15.994Z,66
2022-10-11T02:24:17.354Z,66
2022-10-11T02:25:18.495Z,67
2022-10-11T02:26:19.334Z,67
2022-10-11T02:27:20.419Z,67
2022-10-11T02:28:21.447Z,68
2022-10-11T02:29:22.375Z,68
2022-10-11T02:30:23.555Z,68
2022-10-11T02:31:25.498Z,69
2022-10-11T02:32:27.372Z,67
2022-10-11T02:33:28.415Z,67
2022-10-11T02:34:30.475Z,70
2022-10-11T02:35:32.414Z,68
2022-10-11T02:36:34.415Z,69
2022-10-11T02:37:35.414Z,71
2022-10-11T02:38:36.415Z,72
2022-10-11T02:39:37.456Z,74
2022-10-11T02:40:38.394Z,74
2022-10-11T02:41:39.415Z,74
2022-10-11T02:42:40.418Z,73
2022-10-11T02:43:41.394Z,74
2022-10-11T02:44:42.414Z,75
2022-10-11T02:45:43.495Z,74
2022-10-11T02:46:44.395Z,74
2022-10-11T02:47:45.395Z,74
2022-10-11T02:48:46.455Z,73
2022-10-11T02:49:47.444Z,74
2022-10-11T02:50:48.435Z,75
2022-10-11T02:51:49.495Z,74
2022-10-11T02:52:51.474Z,74
2022-10-11T02:53:52.522Z,74
2022-10-11T02:54:54.491Z,74
2022-10-11T02:55:56.514Z,74
2022-10-11T02:56:57.343Z,74
2022-10-11T02:57:58.484Z,74
2022-10-11T02:59:00.494Z,74
2022-10-11T03:00:02.594Z,72
2022-10-11T03:01:04.536Z,71
2022-10-11T03:02:06.612Z,72
2022-10-11T03:03:08.476Z,71
2022-10-11T03:04:09.474Z,71
2022-10-11T03:05:10.452Z,70
2022-10-11T03:06:11.414Z,70
2022-10-11T03:07:12.415Z,70
2022-10-11T03:08:13.400Z,70
2022-10-11T03:09:14.454Z,70
2022-10-11T03:10:15.414Z,71
2022-10-11T03:11:16.415Z,70
2022-10-11T03:12:17.380Z,72
2022-10-11T03:13:18.662Z,70
2022-10-11T03:14:19.374Z,69
2022-10-11T03:15:20.374Z,68
2022-10-11T03:16:21.475Z,67
2022-10-11T03:17:35.947Z,68
2022-10-11T03:18:24.398Z,68
2022-10-11T03:19:25.395Z,68
2022-10-11T03:20:26.421Z,69
2022-10-11T03:21:27.480Z,68
2022-10-11T03:22:28.464Z,69
2022-10-11T03:23:30.538Z,69
2022-10-11T03:24:32.408Z,70
2022-10-11T03:25:33.443Z,69
2022-10-11T03:26:34.462Z,68
2022-10-11T03:27:35.354Z,68
2022-10-11T03:28:36.540Z,68
2022-10-11T03:29:37.435Z,68
2022-10-11T03:30:38.515Z,69
2022-10-11T03:31:39.449Z,67
2022-10-11T03:32:40.434Z,68
2022-10-11T03:33:41.436Z,67
2022-10-11T03:34:42.468Z,67
2022-10-11T03:35:44.514Z,67
2022-10-11T03:36:46.556Z,68
2022-10-11T03:37:48.495Z,67
2022-10-11T03:38:50.514Z,66
2022-10-11T03:39:52.515Z,65
2022-10-11T03:40:54.420Z,66
2022-10-11T03:41:55.423Z,66
2022-10-11T03:42:56.464Z,67
2022-10-11T03:43:58.438Z,66
2022-10-11T03:44:59.534Z,66
2022-10-11T03:46:02.021Z,66
2022-10-11T03:47:03.596Z,66
2022-10-11T03:48:05.475Z,67
2022-10-11T03:49:06.444Z,67
2022-10-11T03:50:07.536Z,66
2022-10-11T03:51:08.514Z,67
2022-10-11T03:52:09.474Z,67
2022-10-11T03:53:10.494Z,67
2022-10-11T03:54:11.482Z,67
2022-10-11T03:55:12.487Z,67
2022-10-11T03:56:13.890Z,67
2022-10-11T03:57:14.517Z,67
2022-10-11T03:58:15.463Z,66
2022-10-11T03:59:16.681Z,67
2022-10-11T04:00:18.558Z,67
2022-10-11T04:01:20.648Z,66
2022-10-11T04:02:22.493Z,67
2022-10-11T04:03:23.539Z,67
2022-10-11T04:04:25.555Z,67
2022-10-11T04:05:27.535Z,67
2022-10-11T04:06:29.555Z,67
2022-10-11T04:07:31.574Z,67
2022-10-11T04:08:33.417Z,68
2022-10-11T04:09:34.438Z,67
2022-10-11T04:10:35.477Z,67
2022-10-11T04:11:36.495Z,66
2022-10-11T04:12:38.494Z,66
2022-10-11T04:13:39.457Z,66
2022-10-11T04:14:40.500Z,67
2022-10-11T04:15:41.514Z,65
2022-10-11T04:16:42.437Z,65
2022-10-11T04:17:43.474Z,64
2022-10-11T04:18:44.416Z,66
2022-10-11T04:19:45.457Z,65
2022-10-11T04:20:46.475Z,65
2022-10-11T04:21:47.402Z,66
2022-10-11T04:22:48.434Z,65
2022-10-11T04:23:49.436Z,65
2022-10-11T04:24:50.494Z,64
2022-10-11T04:25:51.476Z,64
2022-10-11T04:26:52.495Z,64
2022-10-11T04:27:53.523Z,65
2022-10-11T04:28:54.581Z,65
2022-10-11T04:29:56.676Z,65
2022-10-11T04:30:58.535Z,65
2022-10-11T04:32:00.478Z,65
2022-10-11T04:33:01.558Z,64
2022-10-11T04:34:02.494Z,65
2022-10-11T04:35:04.791Z,65
2022-10-11T04:36:04.789Z,65
2022-10-11T04:37:05.596Z,65
2022-10-11T04:38:07.539Z,66
2022-10-11T04:39:08.483Z,66
2022-10-11T04:40:09.535Z,66
2022-10-11T04:41:10.534Z,66
2022-10-11T04:42:11.491Z,65
2022-10-11T04:43:12.514Z,65
2022-10-11T04:44:13.466Z,65
2022-10-11T04:45:14.478Z,65
2022-10-11T04:46:15.483Z,65
2022-10-11T04:47:16.734Z,65
2022-10-11T04:48:18.535Z,64
2022-10-11T04:49:19.454Z,65
2022-10-11T04:50:20.435Z,65
2022-10-11T04:51:21.483Z,66
2022-10-11T04:52:25.666Z,67
2022-10-11T04:53:23.515Z,67
2022-10-11T04:54:24.496Z,65
2022-10-11T04:55:25.554Z,65
2022-10-11T04:56:26.474Z,65
2022-10-11T04:57:27.496Z,65
2022-10-11T04:58:28.434Z,65
2022-10-11T04:59:29.563Z,64
2022-10-11T05:00:31.659Z,64
2022-10-11T05:01:33.623Z,65
2022-10-11T05:02:35.455Z,66
2022-10-11T05:03:36.715Z,65
2022-10-11T05:04:38.655Z,65
2022-10-11T05:05:40.444Z,65
2022-10-11T05:06:41.461Z,64
2022-10-11T05:07:42.512Z,65
2022-10-11T05:08:43.494Z,65
2022-10-11T05:09:44.539Z,65
2022-10-11T05:10:46.635Z,65
2022-10-11T05:11:48.532Z,64
2022-10-11T05:12:49.494Z,64
2022-10-11T05:13:50.525Z,64
2022-10-11T05:14:51.535Z,64
2022-10-11T05:15:52.541Z,66
2022-10-11T05:16:53.535Z,65
2022-10-11T05:17:54.535Z,65
2022-10-11T05:18:56.595Z,65
2022-10-11T05:19:58.512Z,66
2022-10-11T05:21:00.496Z,64
2022-10-11T05:22:01.565Z,65
2022-10-11T05:23:02.509Z,64
2022-10-11T05:24:03.535Z,64
2022-10-11T05:25:04.571Z,64
2022-10-11T05:26:05.849Z,65
2022-10-11T05:27:06.563Z,65
2022-10-11T05:28:07.634Z,65
2022-10-11T05:29:08.646Z,66
2022-10-11T05:30:10.537Z,66
2022-10-11T05:31:11.640Z,66
2022-10-11T05:32:13.574Z,66
2022-10-11T05:33:15.694Z,66
2022-10-11T05:34:17.534Z,65
2022-10-11T05:35:18.548Z,66
2022-10-11T05:36:19.476Z,66
2022-10-11T05:37:20.564Z,65
2022-10-11T05:38:21.560Z,66
2022-10-11T05:39:22.555Z,65
2022-10-11T05:40:24.494Z,65
2022-10-11T05:41:25.457Z,65
2022-10-11T05:42:26.537Z,65
2022-10-11T05:43:27.514Z,64
2022-10-11T05:44:28.544Z,65
2022-10-11T05:45:29.475Z,65
2022-10-11T05:46:30.564Z,65
2022-10-11T05:47:31.555Z,65
2022-10-11T05:48:32.475Z,64
2022-10-11T05:49:33.523Z,62
2022-10-11T05:50:34.598Z,62
2022-10-11T05:51:36.535Z,62
2022-10-11T05:52:37.502Z,64
2022-10-11T05:53:38.596Z,62
2022-10-11T05:54:40.438Z,64
2022-10-11T05:55:41.555Z,62
2022-10-11T05:56:42.554Z,62
2022-10-11T05:57:43.495Z,62
2022-10-11T05:58:45.604Z,64
2022-10-11T05:59:47.556Z,64
2022-10-11T06:00:48.555Z,62
2022-10-11T06:01:49.506Z,61
2022-10-11T06:02:50.536Z,62
2022-10-11T06:03:51.496Z,62
2022-10-11T06:04:52.558Z,62
2022-10-11T06:05:56.905Z,61
2022-10-11T06:06:54.534Z,61
2022-10-11T06:07:55.523Z,61
2022-10-11T06:08:56.500Z,61
2022-10-11T06:09:57.523Z,62
2022-10-11T06:10:58.494Z,62
2022-10-11T06:11:59.484Z,62
2022-10-11T06:13:00.575Z,62
2022-10-11T06:14:01.655Z,62
2022-10-11T06:15:03.554Z,62
2022-10-11T06:16:04.874Z,62
2022-10-11T06:17:05.539Z,62
2022-10-11T06:18:06.576Z,62
2022-10-11T06:19:07.575Z,60
2022-10-11T06:20:08.579Z,59
2022-10-11T06:21:09.474Z,59
2022-10-11T06:22:10.516Z,59
2022-10-11T06:23:11.536Z,60
2022-10-11T06:24:12.635Z,59
2022-10-11T06:25:13.514Z,59
2022-10-11T06:26:14.530Z,59
2022-10-11T06:27:16.674Z,58
2022-10-11T06:28:18.596Z,58
2022-10-11T06:29:19.595Z,58
2022-10-11T06:30:20.535Z,58
2022-10-11T06:31:21.558Z,58
2022-10-11T06:32:22.619Z,57
2022-10-11T06:33:23.556Z,57
2022-10-11T06:34:24.602Z,56
2022-10-11T06:35:25.554Z,57
2022-10-11T06:36:26.546Z,56
2022-10-11T06:37:27.563Z,56
2022-10-11T06:38:28.500Z,56
2022-10-11T06:39:29.518Z,57
2022-10-11T06:40:30.602Z,58
2022-10-11T06:41:32.594Z,58
2022-10-11T06:42:33.515Z,59
2022-10-11T06:43:34.517Z,58
2022-10-11T06:44:35.534Z,58
2022-10-11T06:45:36.535Z,59
2022-10-11T06:46:37.574Z,57
2022-10-11T06:47:38.599Z,58
2022-10-11T06:48:39.536Z,58
2022-10-11T06:49:40.596Z,56
2022-10-11T06:50:58.929Z,56
2022-10-11T06:51:42.615Z,56
2022-10-11T06:52:43.534Z,56
2022-10-11T06:53:44.535Z,57
2022-10-11T06:54:45.656Z,56
2022-10-11T06:55:47.495Z,55
2022-10-11T06:56:48.539Z,55
2022-10-11T06:57:49.595Z,55
2022-10-11T06:58:50.594Z,55
2022-10-11T06:59:51.635Z,54
2022-10-11T07:00:52.590Z,54
2022-10-11T07:01:53.497Z,53
2022-10-11T07:02:54.614Z,54
2022-10-11T07:03:55.577Z,53
2022-10-11T07:04:56.552Z,53
2022-10-11T07:06:01.522Z,53
2022-10-11T07:06:58.634Z,55
2022-10-11T07:08:00.661Z,53
2022-10-11T07:09:02.583Z,53
2022-10-11T07:10:03.667Z,52
2022-10-11T07:11:05.586Z,53
2022-10-11T07:12:06.555Z,52
2022-10-11T07:13:07.519Z,52
2022-10-11T07:14:08.535Z,53
2022-10-11T07:15:09.655Z,52
2022-10-11T07:16:11.682Z,52
2022-10-11T07:17:13.583Z,52
2022-10-11T07:18:14.606Z,52
2022-10-11T07:19:15.679Z,52
2022-10-11T07:20:17.755Z,52
2022-10-11T07:21:19.595Z,52
2022-10-11T07:22:20.595Z,52
2022-10-11T07:23:21.598Z,52
2022-10-11T07:24:22.615Z,52
2022-10-11T07:25:23.571Z,51
2022-10-11T07:26:24.682Z,51
2022-10-11T07:27:26.574Z,51
2022-10-11T07:28:27.792Z,50
2022-10-11T07:29:29.555Z,50
2022-10-11T07:30:30.586Z,49
2022-10-11T07:31:31.636Z,49
2022-10-11T07:32:32.575Z,49
2022-10-11T07:33:33.602Z,49
2022-10-11T07:34:34.614Z,49
2022-10-11T07:35:35.614Z,50
2022-10-11T07:36:36.570Z,49
2022-10-11T07:37:37.574Z,50
2022-10-11T07:38:38.597Z,50
2022-10-11T07:39:39.634Z,50
2022-10-11T07:40:40.640Z,50
2022-10-11T07:41:45.799Z,50
2022-10-11T07:42:44.834Z,50
2022-10-11T07:43:46.777Z,50
2022-10-11T07:44:49.954Z,50
2022-10-11T07:45:52.175Z,50
2022-10-11T07:46:53.734Z,49
2022-10-11T07:47:55.708Z,48
2022-10-11T07:48:57.746Z,49
2022-10-11T07:50:00.654Z,49
2022-10-11T07:51:02.794Z,50
2022-10-11T07:52:04.676Z,50
2022-10-11T07:53:06.717Z,50
2022-10-11T07:54:08.705Z,50
2022-10-11T07:55:10.677Z,49
2022-10-11T07:56:12.682Z,49
2022-10-11T07:57:14.687Z,49
2022-10-11T07:58:15.554Z,50
2022-10-11T07:59:16.574Z,50
2022-10-11T08:00:17.635Z,50
2022-10-11T08:01:18.716Z,50
2022-10-11T08:02:19.575Z,51
2022-10-11T08:03:20.594Z,50
2022-10-11T08:04:21.637Z,49
2022-10-11T08:05:22.735Z,50
2022-10-11T08:06:24.554Z,50
2022-10-11T08:07:25.584Z,50
2022-10-11T08:08:26.894Z,49
2022-10-11T08:09:28.616Z,49
2022-10-11T08:10:29.635Z,49
2022-10-11T08:11:30.735Z,49
2022-10-11T08:12:32.715Z,49
2022-10-11T08:13:34.647Z,50
2022-10-11T08:14:35.648Z,50
2022-10-11T08:15:36.616Z,51
2022-10-11T08:16:37.681Z,50
2022-10-11T08:17:39.675Z,48
2022-10-11T08:18:41.635Z,50
2022-10-11T08:19:42.719Z,49
2022-10-11T08:20:44.862Z,49
2022-10-11T08:21:46.693Z,49
2022-10-11T08:22:48.615Z,48
2022-10-11T08:23:49.548Z,48
2022-10-11T08:24:50.616Z,48
2022-10-11T08:25:51.581Z,48
2022-10-11T08:26:52.633Z,48
2022-10-11T08:27:53.663Z,48
2022-10-11T08:28:54.690Z,48
2022-10-11T08:29:55.676Z,48
2022-10-11T08:30:56.619Z,48
2022-10-11T08:31:57.536Z,48
2022-10-11T08:32:58.615Z,47
2022-10-11T08:33:59.575Z,47
2022-10-11T08:35:00.738Z,48
2022-10-11T08:36:02.959Z,47
2022-10-11T08:37:03.575Z,48
2022-10-11T08:38:04.660Z,46
2022-10-11T08:39:05.677Z,47
2022-10-11T08:40:06.695Z,47
2022-10-11T08:41:08.734Z,47
2022-10-11T08:42:10.654Z,47
2022-10-11T08:43:12.742Z,47
2022-10-11T08:44:14.756Z,47
2022-10-11T08:45:16.643Z,47
2022-10-11T08:46:17.583Z,47
2022-10-11T08:47:18.595Z,48
2022-10-11T08:48:19.661Z,48
2022-10-11T08:49:20.995Z,48
2022-10-11T08:50:22.708Z,47
2022-10-11T08:51:23.614Z,48
2022-10-11T08:52:24.675Z,47
2022-10-11T08:53:25.676Z,47
2022-10-11T08:54:26.634Z,47
2022-10-11T08:55:27.674Z,46
2022-10-11T08:56:28.644Z,47
2022-10-11T08:57:29.714Z,47
2022-10-11T08:58:31.856Z,48
2022-10-11T08:59:33.695Z,49
2022-10-11T09:00:34.662Z,47
2022-10-11T09:01:35.689Z,47
2022-10-11T09:02:56.015Z,47
2022-10-11T09:03:38.814Z,47
2022-10-11T09:04:40.623Z,47
2022-10-11T09:05:41.660Z,46
2022-10-11T09:06:42.674Z,46
2022-10-11T09:07:44.735Z,47
2022-10-11T09:08:46.889Z,46
2022-10-11T09:09:48.695Z,47
2022-10-11T09:10:49.655Z,47
2022-10-11T09:11:50.715Z,45
2022-10-11T09:12:52.667Z,46
2022-10-11T09:13:53.712Z,47
2022-10-11T09:14:54.675Z,47
2022-10-11T09:15:55.615Z,47
2022-10-11T09:16:56.674Z,46
2022-10-11T09:17:57.666Z,46
2022-10-11T09:18:58.703Z,46
2022-10-11T09:20:00.642Z,46
2022-10-11T09:21:02.737Z,46
2022-10-11T09:22:04.914Z,46
2022-10-11T09:23:06.615Z,47
2022-10-11T09:24:07.655Z,46
2022-10-11T09:25:08.614Z,46
2022-10-11T09:26:09.864Z,46
2022-10-11T09:27:10.615Z,46
2022-10-11T09:28:11.762Z,47
2022-10-11T09:29:12.644Z,46
2022-10-11T09:30:13.696Z,46
2022-10-11T09:31:14.635Z,46
2022-10-11T09:32:15.694Z,46
2022-10-11T09:33:16.716Z,46
2022-10-11T09:34:17.594Z,45
2022-10-11T09:35:18.615Z,45
2022-10-11T09:36:19.618Z,46
2022-10-11T09:37:20.614Z,46
2022-10-11T09:38:22.655Z,46
2022-10-11T09:39:23.715Z,47
2022-10-11T09:40:25.716Z,46
2022-10-11T09:41:27.784Z,46
2022-10-11T09:42:29.634Z,46
2022-10-11T09:43:30.619Z,48
2022-10-11T09:44:31.581Z,46
2022-10-11T09:45:32.695Z,48
2022-10-11T09:46:33.639Z,47
2022-10-11T09:47:34.634Z,47
2022-10-11T09:48:35.734Z,47
2022-10-11T09:49:37.634Z,46
2022-10-11T09:50:38.655Z,46
2022-10-11T09:51:39.678Z,46
2022-10-11T09:52:40.734Z,45
2022-10-11T09:53:42.956Z,45
2022-10-11T09:54:44.726Z,46
2022-10-11T09:55:46.735Z,45
2022-10-11T09:56:48.654Z,45
2022-10-11T09:57:49.614Z,47
2022-10-11T09:58:50.719Z,46
2022-10-11T09:59:51.635Z,47
2022-10-11T10:00:52.735Z,46
2022-10-11T10:01:53.790Z,45
2022-10-11T10:02:54.663Z,45
2022-10-11T10:03:55.674Z,45
2022-10-11T10:04:56.662Z,45
2022-10-11T10:05:57.695Z,46
2022-10-11T10:06:58.768Z,46
2022-10-11T10:08:02.953Z,46
2022-10-11T10:09:00.639Z,47
2022-10-11T10:10:01.700Z,47
2022-10-11T10:11:03.634Z,46
2022-10-11T10:12:04.715Z,46
2022-10-11T10:13:05.674Z,45
2022-10-11T10:14:06.716Z,45
2022-10-11T10:15:07.675Z,45
2022-10-11T10:16:09.261Z,46
2022-10-11T10:17:10.674Z,46
2022-10-11T10:18:11.695Z,46
2022-10-11T10:19:13.819Z,48
2022-10-11T10:20:15.716Z,48
2022-10-11T10:21:17.734Z,47
2022-10-11T10:22:19.753Z,47
2022-10-11T10:23:21.735Z,48
2022-10-11T10:24:23.834Z,46
2022-10-11T10:25:25.735Z,46
2022-10-11T10:26:26.715Z,45
2022-10-11T10:27:27.702Z,45
2022-10-11T10:28:28.737Z,45
2022-10-11T10:29:29.655Z,46
2022-10-11T10:30:34.606Z,48
2022-10-11T10:31:40.250Z,48
2022-10-11T10:32:34.659Z,48
2022-10-11T10:33:35.737Z,48
2022-10-11T10:34:36.754Z,49
2022-10-11T10:35:38.810Z,47
2022-10-11T10:36:40.722Z,46
2022-10-11T10:37:41.680Z,46
2022-10-11T10:38:42.676Z,46
2022-10-11T10:39:43.655Z,46
2022-10-11T10:40:44.743Z,46
2022-10-11T10:41:45.657Z,47
2022-10-11T10:42:46.761Z,46
2022-10-11T10:43:47.675Z,47
2022-10-11T10:44:48.655Z,47
2022-10-11T10:45:49.677Z,46
2022-10-11T10:46:50.695Z,47
2022-10-11T10:47:51.695Z,46
2022-10-11T10:49:55.272Z,46
2022-10-11T10:50:55.677Z,47
2022-10-11T10:51:56.716Z,46
2022-10-11T10:52:57.714Z,46
2022-10-11T10:53:58.783Z,46
2022-10-11T10:55:00.774Z,45
2022-10-11T10:56:03.068Z,45
2022-10-11T10:57:04.835Z,45
2022-10-11T10:58:06.695Z,45
2022-10-11T10:59:07.757Z,45
2022-10-11T11:00:08.814Z,45
2022-10-11T11:01:10.791Z,46
2022-10-11T11:02:35.268Z,46
2022-10-11T11:03:13.684Z,45
2022-10-11T11:04:14.705Z,45
2022-10-11T11:05:15.725Z,45
2022-10-11T11:06:16.802Z,45
2022-10-11T11:07:19.143Z,45
2022-10-11T11:08:20.777Z,45
2022-10-11T11:09:22.696Z,44
2022-10-11T11:10:23.734Z,44
2022-10-11T11:11:24.734Z,44
2022-10-11T11:12:25.674Z,44
2022-10-11T11:13:26.734Z,44
2022-10-11T11:14:27.654Z,45
2022-10-11T11:15:32.461Z,46
2022-10-11T11:16:30.743Z,46
2022-10-11T11:17:31.794Z,46
2022-10-11T11:18:33.795Z,45
2022-10-11T11:19:35.734Z,45
2022-10-11T11:20:36.694Z,46
2022-10-11T11:21:41.318Z,46
2022-10-11T11:22:38.597Z,45
2022-10-11T11:23:39.688Z,45
2022-10-11T11:24:40.680Z,44
2022-10-11T11:25:44.793Z,44
2022-10-11T11:26:44.366Z,44
2022-10-11T11:27:43.604Z,44
2022-10-11T11:28:44.783Z,44
2022-10-11T11:29:45.775Z,45
2022-10-11T11:30:47.729Z,44
2022-10-11T11:31:49.694Z,45
2022-10-11T11:32:50.777Z,45
2022-10-11T11:33:51.677Z,44
2022-10-11T11:34:52.681Z,45
2022-10-11T11:35:53.715Z,45
2022-10-11T11:36:54.719Z,45
2022-10-11T11:38:00.285Z,45
2022-10-11T11:38:57.327Z,45
2022-10-11T11:39:58.735Z,45
2022-10-11T11:40:59.735Z,45
2022-10-11T11:42:00.708Z,45
2022-10-11T11:43:01.796Z,46
2022-10-11T11:44:02.784Z,45
2022-10-11T11:45:03.755Z,45
2022-10-11T11:46:04.674Z,44
2022-10-11T11:47:05.715Z,44
2022-10-11T11:48:06.735Z,44
2022-10-11T11:49:12.189Z,45
2022-10-11T11:50:09.772Z,44
2022-10-11T11:51:10.763Z,45
2022-10-11T11:52:11.755Z,44
2022-10-11T11:53:12.814Z,45
2022-10-11T11:54:14.759Z,45
2022-10-11T11:55:15.775Z,46
2022-10-11T11:56:16.696Z,45
2022-10-11T11:57:18.178Z,46
2022-10-11T11:58:19.691Z,46
2022-10-11T11:59:20.776Z,46
2022-10-11T12:00:21.775Z,46
2022-10-11T12:01:24.735Z,46
2022-10-11T12:02:25.009Z,45
2022-10-11T12:03:26.703Z,45
2022-10-11T12:04:27.672Z,46
2022-10-11T12:05:28.755Z,46
2022-10-11T12:06:29.775Z,45
2022-10-11T12:07:30.742Z,46
2022-10-11T12:08:31.739Z,45
2022-10-11T12:09:32.802Z,45
2022-10-11T12:10:33.863Z,45
2022-10-11T12:11:35.734Z,45
2022-10-11T12:12:36.635Z,46
2022-10-11T12:13:37.695Z,46
2022-10-11T12:14:38.695Z,45
2022-10-11T12:15:39.734Z,46
2022-10-11T12:16:43.215Z,45
2022-10-11T12:17:44.812Z,46
2022-10-11T12:18:45.755Z,45
2022-10-11T12:19:46.794Z,45
2022-10-11T12:20:48.756Z,45
2022-10-11T12:21:49.756Z,45
2022-10-11T12:22:50.735Z,45
2022-10-11T12:23:51.695Z,45
2022-10-11T12:24:52.738Z,45
2022-10-11T12:25:53.735Z,45
2022-10-11T12:26:54.674Z,46
2022-10-11T12:27:55.844Z,46
2022-10-11T12:28:56.775Z,46
2022-10-11T12:29:57.714Z,45
2022-10-11T12:30:58.784Z,45
2022-10-11T12:31:59.735Z,45
2022-10-11T12:33:00.757Z,46
2022-10-11T12:34:01.775Z,46
2022-10-11T12:35:02.725Z,46
2022-10-11T12:36:05.531Z,46
2022-10-11T12:37:06.750Z,46
2022-10-11T12:38:05.819Z,46
2022-10-11T12:39:06.774Z,45
2022-10-11T12:40:07.830Z,45
2022-10-11T12:41:08.786Z,46
2022-10-11T12:42:09.756Z,47
2022-10-11T12:43:10.766Z,46
2022-10-11T12:44:11.697Z,47
2022-10-11T12:45:12.836Z,45
2022-10-11T12:46:14.775Z,46
2022-10-11T12:47:15.847Z,45
2022-10-11T12:48:17.835Z,46
2022-10-11T12:49:19.754Z,47
2022-10-11T12:50:20.864Z,46
2022-10-11T12:51:22.878Z,45
2022-10-11T12:52:24.838Z,45
2022-10-11T12:53:25.755Z,45
2022-10-11T12:54:29.905Z,46
2022-10-11T12:55:27.754Z,46
2022-10-11T12:56:28.684Z,46
2022-10-11T12:57:29.749Z,46
2022-10-11T12:58:30.784Z,45
2022-10-11T12:59:31.758Z,45
2022-10-11T13:00:32.736Z,45
2022-10-11T13:01:33.795Z,46
2022-10-11T13:02:34.837Z,46
2022-10-11T13:03:36.763Z,46
2022-10-11T13:04:37.755Z,46
2022-10-11T13:05:41.972Z,46
2022-10-11T13:06:39.784Z,45
2022-10-11T13:07:40.803Z,46
2022-10-11T13:08:41.725Z,46
2022-10-11T13:09:46.695Z,46
2022-10-11T13:10:43.820Z,45
2022-10-11T13:11:45.834Z,47
2022-10-11T13:12:47.916Z,46
2022-10-11T13:13:49.755Z,46
2022-10-11T13:14:50.876Z,47
2022-10-11T13:15:51.804Z,47
2022-10-11T13:16:52.768Z,46
2022-10-11T13:17:53.775Z,47
2022-10-11T13:18:54.816Z,47
2022-10-11T13:19:55.836Z,45
2022-10-11T13:20:57.419Z,46
2022-10-11T13:21:58.798Z,44
2022-10-11T13:22:59.835Z,45
2022-10-11T13:24:01.862Z,45
2022-10-11T13:25:03.917Z,45
2022-10-11T13:26:06.279Z,45
2022-10-11T13:27:07.769Z,45
2022-10-11T13:28:09.857Z,46
2022-10-11T13:29:10.795Z,45
2022-10-11T13:30:11.864Z,45
2022-10-11T13:31:13.955Z,44
2022-10-11T13:32:15.825Z,44
2022-10-11T13:33:17.835Z,46
2022-10-11T13:34:23.283Z,46
2022-10-11T13:35:23.776Z,46
2022-10-11T13:36:23.916Z,46
2022-10-11T13:37:25.875Z,45
2022-10-11T13:38:27.780Z,46
2022-10-11T13:39:30.874Z,45
2022-10-11T13:40:29.764Z,45
2022-10-11T13:41:30.840Z,46
2022-10-11T13:42:31.769Z,47
2022-10-11T13:43:32.874Z,47
2022-10-11T13:44:34.964Z,46
2022-10-11T13:45:36.776Z,46
2022-10-11T13:46:37.855Z,46
2022-10-11T13:47:38.883Z,47
2022-10-11T13:48:39.837Z,46
2022-10-11T13:49:40.835Z,46
2022-10-11T13:50:41.743Z,47
2022-10-11T13:51:42.836Z,47
2022-10-11T13:52:43.856Z,48
2022-10-11T13:53:44.787Z,48
2022-10-11T13:54:45.755Z,48
2022-10-11T13:55:46.789Z,47
2022-10-11T13:56:48.915Z,46
2022-10-11T13:57:50.856Z,46
2022-10-11T13:58:52.804Z,47
2022-10-11T13:59:53.774Z,46
2022-10-11T14:00:54.796Z,45
2022-10-11T14:01:56.037Z,46
2022-10-11T14:02:57.916Z,46
2022-10-11T14:03:59.905Z,46
2022-10-11T14:05:01.798Z,47
2022-10-11T14:06:03.237Z,47
2022-10-11T14:07:04.835Z,47
2022-10-11T14:08:05.795Z,47
2022-10-11T14:09:07.975Z,47
2022-10-11T14:10:09.776Z,47
2022-10-11T14:11:10.825Z,47
2022-10-11T14:12:11.825Z,47
2022-10-11T14:13:12.844Z,46
2022-10-11T14:14:13.875Z,47
2022-10-11T14:15:14.780Z,47
2022-10-11T14:16:15.797Z,47
2022-10-11T14:17:16.717Z,46
2022-10-11T14:18:17.895Z,46
2022-10-11T14:19:19.883Z,46
2022-10-11T14:20:21.892Z,46
2022-10-11T14:21:23.835Z,46
2022-10-11T14:22:25.888Z,46
2022-10-11T14:23:27.870Z,47
2022-10-11T14:24:29.850Z,47
2022-10-11T14:25:30.794Z,48
2022-10-11T14:26:31.855Z,46
2022-10-11T14:27:32.918Z,47
2022-10-11T14:28:34.927Z,47
2022-10-11T14:29:36.835Z,47
2022-10-11T14:30:37.916Z,47
2022-10-11T14:31:41.863Z,48
2022-10-11T14:32:41.933Z,47
2022-10-11T14:33:43.863Z,47
2022-10-11T14:34:44.879Z,47
2022-10-11T14:35:45.741Z,46
2022-10-11T14:36:46.836Z,46
2022-10-11T14:37:47.862Z,47
2022-10-11T14:38:49.834Z,47